In Rescue
 
Open Full Screen Window  High Contrast Mode
Wind Gusting 00 knots
04
November 25, 2020 5:33 AM CST
Present Weather: Mist
Weather Information
Wind Direction
  340 °
Wind Speed
  04 kt (5 mph)
Wind Gust
  00 kt (0 mph)
Altimeter
29.86 in
Visibility
5 SM
Temperature
01° C
34° F
Dewpoint
01° C
34° F
Humidity
100%
1hr Rain Fall
00.00 in.
24hr Rain Fall
00.13 in.
Sky Condition
Overcast @ 200 ft
LIFR

METAR K9MN 251133Z AUTO 34004KT 5SM BR OVC002 01/01 A2986 RMK AO1 T00100011

FAA Disclaimer: The data displayed is for advisory purposes only and is not to be used for flight planning or operations.